Andong, South Korea

5:13 PM KST on September 22, 2014 (GMT +0900)
Daegu | Change Station
CLOSE
Current Station
Airport
Location: Daegu AB,
Elevation: 115 ft
Nearby Weather Stations

Elev 115 ft 35.89 °N, 128.66 °E | Updated 13 minutes ago

Clear
Clear
81 °F
Feels Like 81 °F
N
13
Wind Variable Wind from East

Today
High -- | Low -- °F
--% Chance of Precip.
Yesterday
High -- | Low -- °F
Precip. -- in
6:12 AM 6:22 PM
Waning Crescent, 3% visible
Pressure 30.04 in
Visibility -9999.0 miles
Clouds
Heat Index 81 °F
Dew Point 59 °F
Humidity 48%
Rainfall 0.00 in
Snow Depth Not available.
UV Not available.
Pollen Not available.
Air Quality Not available.
Flu Activity Not available.
METAR RKTN 220800Z 10011KT CAVOK 27/15 Q1017 NOSIG

More Conditions Fewer Conditions

Pressure 30.04 in
Visibility -9999.0 miles
Clouds
Heat Index 81 °F
Dew Point 59 °F
Humidity 48%
Rainfall 0.00 in
Snow Depth Not available.
UV Not available.
Pollen Not available.
Air Quality Not available.
Flu Activity Not available.
METAR RKTN 220800Z 10011KT CAVOK 27/15 Q1017 NOSIG

More Conditions Fewer Conditions

10-Day Weather Forecast

Almanac

Astronomy

Sep. 22, 2014 Rise Set
Actual Time 6:12 AM KST 6:22 PM KST
Civil Twilight 5:46 AM KST 6:48 PM KST
Nautical Twilight 5:16 AM KST 7:18 PM KST
Astronomical Twilight 4:46 AM KST 7:49 PM KST
Moon 4:10 AM KST 5:09 PM KST
Length of Visible Light 13h 01m
Length of Day
12h 10m
Tomorrow will be 2m 18s shorter.
Waning Crescent, 3% of the Moon is Illuminated
Today
Waning Crescent
Sep 24
New
Oct 1
First Quarter
Oct 8
Full
Oct 15
Last Quarter

Yesterday's Extremes

Country Highs Country Lows

Community

WunderPhotos

Upload Photos

1,755,395 photos uploaded!

Nearby

Snow Depth

Not available.

Earthquake Activity

City Distance Mag. Time & Date
No recent earthquake activity has been reported nearby.
Minimum magnitude displayed is 2.5.

Coastal Water Temperatures

Place Temperature
No Stations Reporting

Nearby Weather Stations